Time;durP1;ratioP1;P1;durP2;ratioP2;P2;SDS_P1;SDS_P2;PMS_P1;PMS_P2;Temp;Humidity;BMP_temperature;BMP_pressure;BME280_temperature;BME280_humidity;BME280_pressure;Samples;Min_cycle;Max_cycle;Signal;HPM_P1;HPM_P2
2023/08/09 00:00:47;;;;;;;3.00;2.80;;;;;;;19.22;69.44;95111.41;5074211;28;20938;-72
2023/08/09 00:03:14;;;;;;;3.00;2.80;;;;;;;19.21;69.19;95104.41;5073888;28;20438;-72
2023/08/09 00:05:41;;;;;;;2.70;2.50;;;;;;;19.19;69.60;95101.94;5073898;28;20438;-72
2023/08/09 00:08:09;;;;;;;3.20;3.00;;;;;;;19.14;68.40;95104.31;5038511;28;20481;-71
2023/08/09 00:10:36;;;;;;;2.33;2.23;;;;;;;19.14;70.19;95099.00;5075288;28;20448;-72
2023/08/09 00:13:04;;;;;;;3.50;2.80;;;;;;;19.13;70.05;95095.50;5074468;28;20453;-72
2023/08/09 00:15:31;;;;;;;3.10;2.80;;;;;;;19.04;68.93;95096.53;5073806;28;20819;-71
2023/08/09 00:17:58;;;;;;;3.40;2.70;;;;;;;18.99;69.66;95098.91;5074183;28;20449;-72
2023/08/09 00:20:25;;;;;;;4.07;2.87;;;;;;;19.01;70.01;95098.72;5073170;28;20486;-72
2023/08/09 00:22:52;;;;;;;3.00;2.57;;;;;;;19.03;70.38;95100.19;5073699;28;20450;-72
2023/08/09 00:25:20;;;;;;;2.70;2.50;;;;;;;19.12;71.56;95096.50;5073649;28;20447;-72
2023/08/09 00:27:47;;;;;;;2.50;2.33;;;;;;;19.04;69.05;95101.84;5073378;28;20774;-72
2023/08/09 00:30:14;;;;;;;4.53;2.40;;;;;;;18.98;69.84;95096.44;5073109;28;20897;-72
2023/08/09 00:32:42;;;;;;;2.93;2.63;;;;;;;18.95;69.97;95099.44;5073225;28;20469;-72
2023/08/09 00:35:09;;;;;;;2.80;2.60;;;;;;;18.88;69.89;95091.34;5073066;28;20902;-72
2023/08/09 00:37:39;;;;;;;3.00;2.80;;;;;;;18.86;69.96;95096.84;5073124;28;20528;-72
2023/08/09 00:40:07;;;;;;;3.03;2.77;;;;;;;18.84;70.64;95090.88;5073050;28;20486;-72
2023/08/09 00:42:36;;;;;;;3.60;2.93;;;;;;;18.92;71.48;95081.19;5073022;28;20505;-72
2023/08/09 00:45:03;;;;;;;4.13;2.70;;;;;;;18.95;72.31;95081.66;5073175;28;20438;-71
2023/08/09 00:47:32;;;;;;;3.33;2.70;;;;;;;18.99;70.87;95076.81;5073031;28;20922;-71
2023/08/09 00:49:59;;;;;;;3.00;2.67;;;;;;;19.01;69.81;95080.09;5073075;28;20442;-72
2023/08/09 00:52:27;;;;;;;2.50;2.30;;;;;;;19.02;69.64;95077.28;5037509;28;20435;-72
2023/08/09 00:54:55;;;;;;;2.53;2.43;;;;;;;19.06;70.51;95078.56;5073040;28;20438;-72
2023/08/09 00:57:22;;;;;;;2.87;2.67;;;;;;;19.08;70.07;95081.91;5072871;28;20804;-72
2023/08/09 00:59:50;;;;;;;2.67;2.47;;;;;;;19.13;70.21;95076.88;4988289;28;20510;-72
2023/08/09 01:02:17;;;;;;;3.07;2.83;;;;;;;19.17;68.75;95080.00;5072735;28;20467;-72
2023/08/09 01:04:44;;;;;;;3.03;2.83;;;;;;;19.07;68.06;95079.41;5072247;28;20444;-72
2023/08/09 01:07:16;;;;;;;2.70;2.50;;;;;;;18.98;68.10;95078.63;5072615;28;20792;-73
2023/08/09 01:09:51;;;;;;;5.13;2.93;;;;;;;18.88;69.29;95092.16;5072608;28;20871;-72
2023/08/09 01:12:23;;;;;;;3.10;2.80;;;;;;;18.76;68.44;95079.44;5072797;28;20476;-72
2023/08/09 01:14:57;;;;;;;2.80;2.50;;;;;;;18.56;72.17;95077.22;5072553;28;20450;-72
2023/08/09 01:17:28;;;;;;;3.77;2.90;;;;;;;18.62;70.47;95081.03;5072543;28;20449;-72
2023/08/09 01:19:56;;;;;;;2.83;2.63;;;;;;;18.68;70.69;95074.19;5072706;28;20490;-73
2023/08/09 01:22:27;;;;;;;3.40;2.83;;;;;;;18.66;69.23;95082.31;5072394;28;20449;-71
2023/08/09 01:25:02;;;;;;;2.93;2.60;;;;;;;18.56;69.81;95077.22;5072643;28;20439;-72
2023/08/09 01:27:29;;;;;;;3.50;2.70;;;;;;;18.47;70.24;95086.22;5072279;28;20442;-72
2023/08/09 01:29:56;;;;;;;3.63;3.33;;;;;;;18.37;70.21;95085.59;5072473;28;20479;-73
2023/08/09 01:32:25;;;;;;;3.40;3.20;;;;;;;18.34;69.90;95087.78;5072296;28;20493;-72
2023/08/09 01:34:53;;;;;;;3.77;2.73;;;;;;;18.24;70.98;95078.19;5072235;28;20489;-72
2023/08/09 01:37:28;;;;;;;3.57;3.37;;;;;;;18.28;71.42;95084.00;5072239;28;20450;-72
2023/08/09 01:39:59;;;;;;;2.87;2.67;;;;;;;18.32;71.27;95087.94;5072034;28;20494;-72
2023/08/09 01:42:27;;;;;;;4.33;2.67;;;;;;;18.39;72.63;95090.75;5072004;28;20795;-71
2023/08/09 01:44:54;;;;;;;3.07;2.83;;;;;;;18.53;72.84;95090.03;5053324;28;20520;-72
2023/08/09 01:47:21;;;;;;;3.10;2.77;;;;;;;18.63;71.70;95085.34;5036800;28;20462;-72
2023/08/09 01:49:51;;;;;;;2.77;2.57;;;;;;;18.76;71.08;95084.75;5072427;28;20442;-71
2023/08/09 01:52:18;;;;;;;2.90;2.60;;;;;;;18.95;70.42;95092.28;5072333;28;20825;-72
2023/08/09 01:54:47;;;;;;;2.23;2.10;;;;;;;18.98;69.35;95091.09;5072217;28;20434;-72
2023/08/09 01:57:15;;;;;;;2.50;2.37;;;;;;;18.91;69.65;95088.34;5072063;28;20450;-72
2023/08/09 01:59:45;;;;;;;3.00;2.80;;;;;;;18.94;70.37;95093.28;5072131;28;20479;-72
2023/08/09 02:02:12;;;;;;;3.10;2.90;;;;;;;18.91;67.88;95091.00;5071876;28;20458;-72
2023/08/09 02:04:39;;;;;;;2.77;2.57;;;;;;;18.85;67.95;95097.84;5072210;28;20430;-71
2023/08/09 02:07:06;;;;;;;3.50;3.10;;;;;;;18.69;68.66;95089.94;5071990;28;20458;-71
2023/08/09 02:09:33;;;;;;;3.30;3.10;;;;;;;18.60;69.00;95083.00;5071880;28;20449;-72
2023/08/09 02:12:00;;;;;;;2.87;2.67;;;;;;;18.44;70.15;95083.91;5053117;28;20429;-72
2023/08/09 02:14:28;;;;;;;3.10;2.90;;;;;;;18.35;70.76;95084.13;5071015;28;20440;-72
2023/08/09 02:16:55;;;;;;;3.43;3.13;;;;;;;18.33;70.49;95086.13;5072099;28;20437;-72
2023/08/09 02:19:22;;;;;;;3.07;2.87;;;;;;;18.31;71.42;95085.47;5039468;28;20480;-71
2023/08/09 02:21:49;;;;;;;3.60;3.30;;;;;;;18.37;70.36;95090.91;5074877;28;20446;-72
2023/08/09 02:24:16;;;;;;;3.50;3.30;;;;;;;18.50;69.94;95079.72;5074855;28;20790;-72
2023/08/09 02:26:43;;;;;;;3.00;2.80;;;;;;;18.53;69.10;95088.19;5039452;28;20481;-71
2023/08/09 02:29:10;;;;;;;3.20;2.87;;;;;;;18.39;69.75;95086.25;5075512;28;20962;-72
2023/08/09 02:31:40;;;;;;;11.43;3.17;;;;;;;18.42;71.68;95085.91;5075492;28;20529;-72
2023/08/09 02:34:07;;;;;;;3.87;2.57;;;;;;;18.49;69.99;95096.66;5040291;28;20488;-72
2023/08/09 02:36:34;;;;;;;2.80;2.60;;;;;;;18.49;69.91;95096.66;5075512;28;20446;-72
2023/08/09 02:38:59;;;;;;;2.90;2.70;;;;;;;18.48;70.45;95089.69;5075361;28;20447;-72
2023/08/09 02:41:26;;;;;;;2.83;2.63;;;;;;;18.48;69.71;95090.50;5075320;28;20440;-73
2023/08/09 02:43:53;;;;;;;3.70;2.63;;;;;;;19.43;71.99;95104.41;5076079;28;20212;-73
2023/08/09 02:46:20;;;;;;;3.30;3.10;;;;;;;20.02;67.51;95107.22;5075702;28;20472;-73
2023/08/09 02:48:48;;;;;;;3.10;2.90;;;;;;;20.00;63.64;95103.91;5075317;28;20444;-72
2023/08/09 02:51:18;;;;;;;3.10;2.90;;;;;;;19.60;64.07;95106.94;5074911;28;20505;-72
2023/08/09 02:54:01;;;;;;;4.37;3.13;;;;;;;19.32;65.19;95111.97;5075284;28;20442;-72
2023/08/09 02:56:29;;;;;;;3.57;3.27;;;;;;;19.13;64.50;95111.47;5074766;28;20455;-72
2023/08/09 02:58:56;;;;;;;5.90;2.90;;;;;;;18.87;67.04;95116.28;5075013;28;20453;-72
2023/08/09 03:01:24;;;;;;;3.20;2.90;;;;;;;18.92;68.32;95113.09;5074648;28;20503;-72
2023/08/09 03:03:54;;;;;;;3.57;2.97;;;;;;;19.08;66.36;95108.50;5074961;28;20446;-72
2023/08/09 03:06:22;;;;;;;2.60;2.40;;;;;;;19.02;65.91;95117.16;5074745;28;20443;-71
2023/08/09 03:08:48;;;;;;;3.00;2.80;;;;;;;18.96;67.05;95112.56;5074924;28;20809;-72
2023/08/09 03:11:15;;;;;;;2.90;2.70;;;;;;;18.91;66.91;95120.25;5066243;28;20883;-71
2023/08/09 03:13:42;;;;;;;2.77;2.57;;;;;;;19.12;66.55;95117.78;5056938;28;20445;-72
2023/08/09 03:16:09;;;;;;;4.47;3.00;;;;;;;19.35;64.97;95112.44;5054794;28;20948;-72
2023/08/09 03:18:36;;;;;;;3.00;2.80;;;;;;;19.42;63.41;95120.56;5054649;28;20439;-71
2023/08/09 03:21:04;;;;;;;4.60;3.20;;;;;;;19.22;64.45;95122.88;5056372;28;20485;-72
2023/08/09 03:23:31;;;;;;;3.60;2.80;;;;;;;18.93;64.39;95120.91;5054478;28;20760;-72
2023/08/09 03:25:57;;;;;;;3.10;2.90;;;;;;;18.56;66.00;95118.91;5054566;28;20446;-72
2023/08/09 03:28:24;;;;;;;5.30;2.80;;;;;;;18.32;68.14;95122.50;5053836;28;20456;-72
2023/08/09 03:30:51;;;;;;;3.47;3.27;;;;;;;18.35;67.19;95119.47;5054751;28;20456;-72
2023/08/09 03:33:18;;;;;;;2.80;2.60;;;;;;;18.24;67.72;95119.88;5054058;28;20449;-72
2023/08/09 03:35:45;;;;;;;3.03;2.83;;;;;;;18.17;67.62;95129.50;5054411;28;20480;-72
2023/08/09 03:38:13;;;;;;;3.73;3.00;;;;;;;18.01;68.47;95130.38;5054212;28;20852;-72
2023/08/09 03:40:41;;;;;;;3.13;2.93;;;;;;;18.07;68.61;95128.88;5054148;28;20567;-71
2023/08/09 03:43:07;;;;;;;5.73;3.30;;;;;;;17.96;67.44;95127.41;5054131;28;20447;-72
2023/08/09 03:45:34;;;;;;;3.40;3.10;;;;;;;18.12;79.55;95131.84;5053591;28;20807;-71
2023/08/09 03:48:01;;;;;;;2.80;2.60;;;;;;;19.03;70.92;95139.28;5053935;28;20213;-72
2023/08/09 03:50:28;;;;;;;3.33;3.13;;;;;;;18.85;66.88;95140.41;5053795;28;20454;-72
2023/08/09 03:52:55;;;;;;;3.60;3.30;;;;;;;18.63;66.74;95146.47;5054194;28;20524;-72
2023/08/09 03:55:23;;;;;;;7.00;3.20;;;;;;;18.49;66.42;95144.50;5018448;28;20435;-72
2023/08/09 03:57:50;;;;;;;3.60;3.40;;;;;;;18.30;66.95;95156.38;5053789;28;20545;-72
2023/08/09 04:00:19;;;;;;;3.20;3.00;;;;;;;18.13;67.44;95152.09;5053854;28;20581;-71
2023/08/09 04:02:49;;;;;;;3.13;2.93;;;;;;;17.98;67.70;95145.84;5053764;28;20443;-72
2023/08/09 04:05:19;;;;;;;6.90;3.20;;;;;;;17.88;69.00;95148.66;5053951;28;20879;-72
2023/08/09 04:07:46;;;;;;;5.60;3.43;;;;;;;17.99;69.59;95158.94;5054774;28;20447;-71
2023/08/09 04:10:13;;;;;;;3.17;2.97;;;;;;;18.34;68.64;95162.16;5057134;28;20930;-71
2023/08/09 04:12:41;;;;;;;2.60;2.40;;;;;;;18.85;66.27;95159.00;5052887;28;20480;-71
2023/08/09 04:15:10;;;;;;;2.97;2.77;;;;;;;19.38;64.50;95159.19;5053623;28;20578;-72
2023/08/09 04:17:36;;;;;;;2.87;2.50;;;;;;;19.94;62.59;95157.06;5053480;28;20453;-72
2023/08/09 04:20:09;;;;;;;3.30;2.50;;;;;;;20.56;60.17;95162.13;5053460;28;20493;-72
2023/08/09 04:22:35;;;;;;;3.40;3.10;;;;;;;20.89;58.46;95157.22;5054502;28;20469;-72
2023/08/09 04:25:03;;;;;;;5.17;2.87;;;;;;;21.28;57.34;95162.19;5053506;28;20444;-71
2023/08/09 04:27:31;;;;;;;3.07;2.87;;;;;;;21.54;56.23;95165.16;5053198;28;20454;-72
2023/08/09 04:30:03;;;;;;;3.30;3.10;;;;;;;22.50;69.59;95154.81;5053832;28;20479;-73
2023/08/09 04:32:29;;;;;;;3.00;2.80;;;;;;;23.29;59.15;95160.53;5054038;28;20813;-74
2023/08/09 04:34:56;;;;;;;2.80;2.60;;;;;;;24.03;52.77;95160.47;5053569;28;20471;-74
2023/08/09 04:37:24;;;;;;;3.23;3.03;;;;;;;24.72;50.22;95153.81;5053432;28;20451;-73
2023/08/09 04:39:53;;;;;;;8.00;3.17;;;;;;;24.15;51.73;95158.00;5034275;28;20445;-74
2023/08/09 04:42:19;;;;;;;3.53;3.33;;;;;;;24.18;50.57;95160.25;5053631;28;20448;-73
2023/08/09 04:44:46;;;;;;;3.23;3.03;;;;;;;24.25;52.08;95155.72;5053339;28;20469;-74
2023/08/09 04:47:15;;;;;;;3.37;3.03;;;;;;;24.62;51.17;95154.25;5053900;28;20449;-74
2023/08/09 04:49:42;;;;;;;3.80;3.30;;;;;;;24.70;50.05;95153.19;5053876;28;20446;-73
2023/08/09 04:52:09;;;;;;;21.47;7.13;;;;;;;24.74;50.32;95148.22;5053484;28;20793;-74
2023/08/09 04:54:36;;;;;;;6.80;4.83;;;;;;;23.33;52.76;95148.41;5052915;28;21049;-73
2023/08/09 04:57:05;;;;;;;7.00;4.80;;;;;;;23.19;54.75;95146.72;5053429;28;20441;-74
2023/08/09 04:59:34;;;;;;;4.93;3.50;;;;;;;23.06;56.65;95144.81;5070790;28;20438;-73
2023/08/09 05:02:00;;;;;;;4.90;3.43;;;;;;;23.27;56.23;95154.56;5077986;28;20483;-73
2023/08/09 05:04:29;;;;;;;3.37;3.17;;;;;;;23.77;54.99;95152.44;5073346;28;20451;-73
2023/08/09 05:06:55;;;;;;;4.10;3.10;;;;;;;24.32;52.05;95145.84;5073308;28;20778;-73
2023/08/09 05:09:22;;;;;;;5.60;3.43;;;;;;;24.59;51.96;95149.31;5072975;28;20444;-73
2023/08/09 05:11:49;;;;;;;4.17;3.47;;;;;;;24.83;53.29;95150.44;5073120;28;20440;-74
2023/08/09 05:14:16;;;;;;;4.03;3.20;;;;;;;25.27;52.23;95149.69;5073225;28;20456;-73
2023/08/09 05:16:42;;;;;;;3.67;3.37;;;;;;;25.18;51.62;95150.97;5072836;28;20446;-73
2023/08/09 05:19:09;;;;;;;4.70;3.50;;;;;;;25.12;50.06;95146.44;5072879;28;20452;-73
2023/08/09 05:21:37;;;;;;;5.17;4.23;;;;;;;25.18;50.89;95153.66;5072645;28;20513;-74
2023/08/09 05:24:05;;;;;;;4.50;4.10;;;;;;;24.80;54.29;95160.78;5068958;28;20468;-74
2023/08/09 05:26:31;;;;;;;11.30;3.53;;;;;;;25.16;55.00;95163.81;5052562;28;20483;-74
2023/08/09 05:28:58;;;;;;;3.80;3.50;;;;;;;25.42;53.44;95164.69;5052240;28;20437;-74
2023/08/09 05:31:27;;;;;;;5.40;4.60;;;;;;;25.82;50.99;95178.75;5071218;28;20433;-72
2023/08/09 05:33:56;;;;;;;3.33;3.03;;;;;;;25.86;52.35;95170.03;5071073;28;20460;-72
2023/08/09 05:36:22;;;;;;;3.90;3.53;;;;;;;26.03;48.27;95182.97;5070859;28;20449;-72
2023/08/09 05:38:51;;;;;;;7.60;3.07;;;;;;;26.40;51.43;95173.97;5041158;28;20944;-73
2023/08/09 05:41:18;;;;;;;3.23;3.03;;;;;;;26.25;50.18;95181.50;5068673;28;20525;-72
2023/08/09 05:43:44;;;;;;;3.50;3.20;;;;;;;26.29;50.36;95182.72;5068490;28;20436;-73
2023/08/09 05:46:11;;;;;;;4.20;3.80;;;;;;;25.91;47.95;95180.13;5069349;28;20827;-72
2023/08/09 05:48:38;;;;;;;4.40;4.00;;;;;;;25.84;51.72;95172.13;5070671;28;20436;-73
2023/08/09 05:51:05;;;;;;;5.23;3.50;;;;;;;25.80;47.66;95172.78;5071765;28;20468;-72
2023/08/09 05:53:32;;;;;;;3.50;3.20;;;;;;;25.58;50.52;95170.41;5028189;28;20445;-72
2023/08/09 05:56:00;;;;;;;6.40;3.40;;;;;;;25.98;50.61;95162.06;5067323;28;20829;-72
2023/08/09 05:58:27;;;;;;;3.33;3.13;;;;;;;26.05;50.48;95170.13;5074116;28;20929;-73
2023/08/09 06:00:54;;;;;;;3.57;3.27;;;;;;;26.47;49.37;95166.66;5075145;28;20484;-72
2023/08/09 06:03:21;;;;;;;3.70;3.03;;;;;;;25.50;50.25;95172.50;5074458;28;20444;-73
2023/08/09 06:05:47;;;;;;;4.07;3.77;;;;;;;25.63;48.27;95167.88;5074819;28;20444;-72
2023/08/09 06:08:14;;;;;;;3.10;2.80;;;;;;;25.80;48.15;95167.41;5075285;28;20938;-73
2023/08/09 06:10:42;;;;;;;3.37;3.17;;;;;;;25.30;49.01;95168.06;5074847;28;20433;-73
2023/08/09 06:13:10;;;;;;;2.90;2.70;;;;;;;25.16;49.94;95165.66;5074808;28;20449;-72
2023/08/09 06:15:37;;;;;;;5.13;3.63;;;;;;;24.75;50.23;95169.47;5075088;28;20436;-72
2023/08/09 06:18:04;;;;;;;3.93;3.57;;;;;;;24.71;50.54;95170.94;5074029;28;20436;-72
2023/08/09 06:20:31;;;;;;;4.63;4.07;;;;;;;24.47;51.35;95167.06;5072130;28;20490;-73
2023/08/09 06:22:58;;;;;;;3.67;3.33;;;;;;;24.52;52.21;95158.38;5074082;28;20471;-72
2023/08/09 06:25:25;;;;;;;4.40;4.10;;;;;;;24.42;52.52;95158.81;5073913;28;20452;-72
2023/08/09 06:27:53;;;;;;;3.87;3.20;;;;;;;24.67;53.10;95151.75;5074946;28;20938;-72
2023/08/09 06:30:22;;;;;;;4.20;3.13;;;;;;;25.08;51.12;95153.28;5074286;28;20441;-73
2023/08/09 06:32:49;;;;;;;3.23;3.03;;;;;;;25.41;50.63;95147.75;5074533;28;20931;-71
2023/08/09 06:35:16;;;;;;;4.70;3.30;;;;;;;24.68;51.13;95163.31;5055094;28;20500;-71
2023/08/09 06:37:43;;;;;;;3.90;3.60;;;;;;;24.99;51.63;95146.50;5074424;28;20445;-72
2023/08/09 06:40:10;;;;;;;3.90;3.50;;;;;;;25.17;50.74;95135.09;5074341;28;20997;-72
2023/08/09 06:42:37;;;;;;;3.73;3.00;;;;;;;25.14;51.17;95135.47;5074466;28;20484;-71
2023/08/09 06:45:05;;;;;;;3.37;3.10;;;;;;;25.24;51.36;95135.88;5074219;28;20440;-72
2023/08/09 06:47:33;;;;;;;4.23;3.13;;;;;;;25.45;50.26;95134.72;5074517;28;20951;-72
2023/08/09 06:50:01;;;;;;;3.63;2.90;;;;;;;25.33;50.19;95143.44;5074539;28;20455;-71
2023/08/09 06:52:28;;;;;;;4.67;4.23;;;;;;;24.96;50.69;95138.84;5038797;28;20472;-71
2023/08/09 06:54:54;;;;;;;3.93;3.53;;;;;;;24.90;51.91;95145.09;5074333;28;20448;-72
2023/08/09 06:57:24;;;;;;;3.27;3.07;;;;;;;24.88;51.67;95131.03;5074013;28;20440;-72
2023/08/09 06:59:53;;;;;;;4.30;3.20;;;;;;;24.99;51.81;95146.50;5074366;28;20444;-71
2023/08/09 07:02:20;;;;;;;4.73;3.77;;;;;;;24.88;51.71;95139.94;5073295;28;20990;-72
2023/08/09 07:04:52;;;;;;;4.00;3.70;;;;;;;24.81;51.67;95136.41;5055020;28;20433;-71
2023/08/09 07:07:19;;;;;;;3.27;2.97;;;;;;;24.71;52.75;95125.31;5073800;28;20444;-72
2023/08/09 07:09:46;;;;;;;4.10;2.60;;;;;;;24.82;52.29;95126.50;5038508;28;20528;-72
2023/08/09 07:12:13;;;;;;;4.73;2.67;;;;;;;24.33;52.44;95133.25;5073812;28;20455;-72
2023/08/09 07:14:40;;;;;;;3.60;3.30;;;;;;;24.42;51.13;95126.63;5074000;28;20440;-72
2023/08/09 07:17:07;;;;;;;4.20;3.47;;;;;;;24.63;51.32;95129.06;5073777;28;20940;-71
2023/08/09 07:19:34;;;;;;;3.10;2.90;;;;;;;24.11;53.11;95129.94;5073818;28;20441;-72
2023/08/09 07:22:02;;;;;;;3.27;3.00;;;;;;;23.91;53.39;95119.22;5073612;28;20524;-73
2023/08/09 07:24:29;;;;;;;8.50;3.00;;;;;;;23.89;53.58;95115.09;5054828;28;20455;-72
2023/08/09 07:26:56;;;;;;;6.30;3.30;;;;;;;24.13;53.55;95121.69;5073477;28;20452;-72
2023/08/09 07:29:23;;;;;;;3.63;3.37;;;;;;;24.28;53.56;95120.44;5073673;28;20467;-72
2023/08/09 07:31:49;;;;;;;3.20;3.00;;;;;;;24.52;51.51;95118.13;5073670;28;20467;-72
2023/08/09 07:34:16;;;;;;;3.33;3.03;;;;;;;23.57;53.74;95116.75;5073338;28;20468;-72
2023/08/09 07:36:43;;;;;;;6.93;3.23;;;;;;;23.60;53.74;95116.34;5073662;28;20466;-71
2023/08/09 07:39:12;;;;;;;3.40;3.20;;;;;;;23.61;53.00;95109.94;5073592;28;20944;-71
2023/08/09 07:41:39;;;;;;;3.00;2.80;;;;;;;23.87;53.39;95101.09;5073870;28;20538;-72
2023/08/09 07:44:06;;;;;;;3.67;3.10;;;;;;;23.58;51.66;95102.31;5074712;28;20444;-72
2023/08/09 07:46:33;;;;;;;3.50;3.00;;;;;;;23.46;54.08;95104.75;5073563;28;20436;-72
2023/08/09 07:49:00;;;;;;;4.33;3.93;;;;;;;23.59;52.69;95098.59;5073603;28;20447;-72
2023/08/09 07:51:26;;;;;;;3.60;3.30;;;;;;;24.01;52.96;95098.19;5073067;28;20444;-71
2023/08/09 07:53:53;;;;;;;3.23;3.00;;;;;;;24.22;52.23;95088.25;5073097;28;20444;-72
2023/08/09 07:56:21;;;;;;;3.77;3.57;;;;;;;24.57;51.59;95086.94;5073242;28;20452;-72
2023/08/09 07:58:48;;;;;;;3.70;3.40;;;;;;;24.71;49.77;95091.25;5073288;28;20915;-73
2023/08/09 08:01:15;;;;;;;3.40;3.17;;;;;;;24.75;50.82;95088.13;5073054;28;20571;-72
2023/08/09 08:03:42;;;;;;;3.80;3.40;;;;;;;24.94;50.27;95082.69;5072901;28;20459;-72
2023/08/09 08:06:10;;;;;;;3.60;3.30;;;;;;;24.66;49.81;95082.19;5072414;28;20442;-72
2023/08/09 08:08:36;;;;;;;6.03;3.30;;;;;;;24.80;50.13;95081.09;5072709;28;20265;-73
2023/08/09 08:11:04;;;;;;;3.70;3.23;;;;;;;25.10;50.45;95075.19;5072869;28;20452;-72
2023/08/09 08:13:32;;;;;;;3.13;2.93;;;;;;;25.46;48.96;95078.06;5072934;28;20537;-72
2023/08/09 08:15:59;;;;;;;3.17;2.97;;;;;;;25.58;49.54;95083.56;5071402;28;20437;-73
2023/08/09 08:18:26;;;;;;;3.80;2.97;;;;;;;25.69;48.94;95072.13;5073185;28;20448;-72
2023/08/09 08:20:53;;;;;;;3.47;3.07;;;;;;;25.65;48.81;95070.88;5072921;28;20452;-72
2023/08/09 08:23:20;;;;;;;5.60;3.07;;;;;;;25.70;48.22;95076.47;5072545;28;20445;-73
2023/08/09 08:25:47;;;;;;;9.00;3.43;;;;;;;25.94;48.30;95074.81;5072480;28;20935;-72
2023/08/09 08:28:14;;;;;;;6.50;3.00;;;;;;;25.92;48.85;95080.41;5072609;28;20440;-72
2023/08/09 08:30:42;;;;;;;4.87;3.20;;;;;;;25.63;48.88;95081.84;5072416;28;20441;-72
2023/08/09 08:33:09;;;;;;;3.37;3.07;;;;;;;25.57;49.77;95076.53;5072249;28;20487;-72
2023/08/09 08:35:36;;;;;;;6.17;2.97;;;;;;;25.87;49.43;95066.00;5072378;28;20500;-72
2023/08/09 08:38:04;;;;;;;3.40;3.10;;;;;;;25.86;48.83;95075.09;5037042;28;20479;-72
2023/08/09 08:40:33;;;;;;;3.80;3.50;;;;;;;25.70;49.04;95070.25;5072285;28;20448;-72
2023/08/09 08:43:00;;;;;;;3.53;3.33;;;;;;;25.67;49.13;95065.31;5071996;28;20481;-72
2023/08/09 08:45:26;;;;;;;3.57;3.23;;;;;;;25.84;49.83;95063.75;5072132;28;20445;-72
2023/08/09 08:47:55;;;;;;;3.60;3.40;;;;;;;25.62;48.75;95057.88;5071942;28;20437;-72
2023/08/09 08:50:25;;;;;;;3.77;3.47;;;;;;;25.81;48.81;95062.31;5072319;28;20440;-72
2023/08/09 08:52:52;;;;;;;3.30;3.10;;;;;;;26.00;48.46;95063.16;5072032;28;20463;-72
2023/08/09 08:55:19;;;;;;;3.03;2.83;;;;;;;25.87;48.01;95061.44;5071877;28;20441;-72
2023/08/09 08:57:47;;;;;;;3.57;3.37;;;;;;;26.05;46.61;95055.28;5036455;28;20977;-72
2023/08/09 09:00:17;;;;;;;4.67;3.13;;;;;;;26.09;47.12;95045.72;5071680;28;20464;-72
2023/08/09 09:02:45;;;;;;;3.70;3.20;;;;;;;26.07;47.35;95036.22;5069616;28;20487;-72
2023/08/09 09:05:14;;;;;;;2.90;2.67;;;;;;;26.31;46.79;95040.75;5071854;28;20495;-72
2023/08/09 09:07:44;;;;;;;3.40;3.20;;;;;;;26.32;46.41;95034.31;5071497;28;20857;-71
2023/08/09 09:10:12;;;;;;;6.43;3.47;;;;;;;26.29;47.27;95028.53;5071515;28;20449;-72
2023/08/09 09:12:39;;;;;;;3.10;2.90;;;;;;;26.55;46.73;95021.00;5071537;28;20483;-72
2023/08/09 09:15:08;;;;;;;4.27;3.70;;;;;;;26.77;47.31;95025.91;5071416;28;20448;-73
2023/08/09 09:17:38;;;;;;;4.10;3.27;;;;;;;26.85;46.30;95023.72;5071793;28;20445;-72
2023/08/09 09:20:10;;;;;;;3.30;2.93;;;;;;;27.05;46.09;95028.06;5071391;28;20498;-73
2023/08/09 09:22:38;;;;;;;3.70;3.40;;;;;;;27.20;45.39;95022.28;5071444;28;20570;-71
2023/08/09 09:25:10;;;;;;;3.43;3.23;;;;;;;27.07;44.62;95018.69;5071472;28;20441;-72
2023/08/09 09:27:39;;;;;;;3.53;3.23;;;;;;;27.08;43.79;95023.03;5071151;28;20444;-72
2023/08/09 09:30:12;;;;;;;2.90;2.70;;;;;;;27.11;43.00;95024.44;5071248;28;20480;-72
2023/08/09 09:32:40;;;;;;;3.10;2.90;;;;;;;27.24;43.77;95024.28;5071211;28;20449;-72
2023/08/09 09:35:08;;;;;;;3.10;2.90;;;;;;;27.22;43.66;95015.59;5071097;28;20477;-71
2023/08/09 09:37:37;;;;;;;3.00;2.80;;;;;;;27.19;44.19;95017.94;5071472;28;20433;-72
2023/08/09 09:40:10;;;;;;;5.33;3.37;;;;;;;26.89;44.91;95010.66;5071100;28;20440;-73
2023/08/09 09:42:37;;;;;;;2.87;2.67;;;;;;;26.82;43.71;95004.50;5037551;28;20591;-72
2023/08/09 09:45:06;;;;;;;3.70;3.37;;;;;;;26.82;44.62;94996.44;5071519;28;20437;-72
2023/08/09 09:47:34;;;;;;;2.60;2.40;;;;;;;26.85;45.11;94994.09;5071327;28;20444;-71
2023/08/09 09:50:01;;;;;;;3.30;2.43;;;;;;;26.09;43.86;94988.41;5071338;28;20843;-72
2023/08/09 09:52:30;;;;;;;2.87;2.67;;;;;;;26.28;44.23;94991.91;5070995;28;20926;-72
2023/08/09 09:54:59;;;;;;;2.60;2.50;;;;;;;25.99;44.55;94975.47;5071188;28;20440;-72
2023/08/09 09:57:27;;;;;;;2.40;2.30;;;;;;;25.72;43.25;94963.34;5036326;28;20447;-72
2023/08/09 09:59:59;;;;;;;2.47;2.30;;;;;;;25.74;44.83;94970.16;5070746;28;20954;-72
2023/08/09 10:02:32;;;;;;;3.50;2.80;;;;;;;25.69;46.11;94967.28;5071026;28;20516;-72
2023/08/09 10:05:03;;;;;;;2.37;2.27;;;;;;;25.96;45.76;94967.03;5052221;28;20432;-72
2023/08/09 10:07:31;;;;;;;3.10;2.80;;;;;;;26.02;42.61;94966.97;5070815;28;20447;-72
2023/08/09 10:10:02;;;;;;;2.63;2.40;;;;;;;26.00;45.04;94973.59;5070941;28;20908;-72
2023/08/09 10:12:29;;;;;;;2.53;2.33;;;;;;;26.01;45.22;94953.72;5070950;28;20472;-71
2023/08/09 10:14:57;;;;;;;4.00;2.90;;;;;;;25.90;45.57;94950.75;5052120;28;20421;-72
2023/08/09 10:17:28;;;;;;;5.23;2.60;;;;;;;25.85;44.32;94955.97;5070723;28;20444;-72
2023/08/09 10:19:57;;;;;;;2.80;2.60;;;;;;;25.86;46.09;94946.84;5071277;28;20824;-71
2023/08/09 10:22:24;;;;;;;3.40;3.20;;;;;;;25.54;44.94;94959.56;5035256;28;20491;-72
2023/08/09 10:24:51;;;;;;;3.10;2.90;;;;;;;25.46;43.75;94957.16;5070988;28;20444;-72
2023/08/09 10:27:53;;;;;;;4.70;2.60;;;;;;;25.81;43.63;94946.72;5070935;28;20518;-73
2023/08/09 10:30:26;;;;;;;2.87;2.67;;;;;;;26.15;42.81;94941.78;5070732;28;20445;-72
2023/08/09 10:32:55;;;;;;;2.63;2.40;;;;;;;25.97;41.23;94941.78;5071125;28;20441;-72
2023/08/09 10:35:45;;;;;;;3.07;2.87;;;;;;;26.09;41.04;94923.88;5070977;28;20481;-73
2023/08/09 10:38:13;;;;;;;3.03;2.73;;;;;;;26.11;42.03;94932.53;5071782;28;20437;-73
2023/08/09 10:40:42;;;;;;;5.20;3.23;;;;;;;25.74;41.98;94927.16;5074491;28;20433;-73
2023/08/09 10:43:17;;;;;;;2.93;2.70;;;;;;;26.04;42.56;94924.53;5074575;28;20535;-73
2023/08/09 10:45:45;;;;;;;2.40;2.30;;;;;;;26.17;41.96;94913.59;5074335;28;20494;-73
2023/08/09 10:48:23;;;;;;;2.70;2.50;;;;;;;26.36;40.67;94916.31;5074487;28;20440;-72
2023/08/09 10:51:16;;;;;;;2.30;2.20;;;;;;;26.31;41.12;94921.50;5074033;28;20440;-72
2023/08/09 10:53:51;;;;;;;3.40;2.67;;;;;;;26.12;41.96;94913.47;5074430;28;20877;-72
2023/08/09 10:56:32;;;;;;;2.40;2.30;;;;;;;26.21;40.44;94909.41;5074156;28;20479;-72
2023/08/09 10:59:06;;;;;;;2.50;2.30;;;;;;;26.42;39.80;94901.94;5055157;28;20837;-72
2023/08/09 11:01:33;;;;;;;2.93;2.67;;;;;;;26.21;39.42;94898.66;5074273;28;20494;-72
2023/08/09 11:04:01;;;;;;;3.97;2.63;;;;;;;26.17;40.19;94902.03;5073833;28;20902;-72
2023/08/09 11:06:36;;;;;;;2.00;1.87;;;;;;;26.21;40.55;94900.53;5074249;28;20471;-72
2023/08/09 11:09:11;;;;;;;2.70;2.50;;;;;;;26.19;40.95;94890.00;5074259;28;20440;-71
2023/08/09 11:11:39;;;;;;;3.33;2.13;;;;;;;26.16;40.11;94892.31;5073886;28;20432;-74
2023/08/09 11:14:07;;;;;;;2.83;2.60;;;;;;;26.00;41.17;94884.84;5074029;28;20448;-71
2023/08/09 11:16:34;;;;;;;2.60;2.40;;;;;;;26.29;41.13;94886.75;5074190;28;20448;-71
2023/08/09 11:19:04;;;;;;;3.30;2.37;;;;;;;26.34;40.00;94886.13;5073964;28;20479;-72
2023/08/09 11:21:39;;;;;;;2.67;2.47;;;;;;;26.17;39.27;94892.09;5073721;28;20441;-71
2023/08/09 11:24:07;;;;;;;6.60;2.33;;;;;;;26.28;38.47;94878.91;5073846;28;20881;-73
2023/08/09 11:26:36;;;;;;;2.83;2.63;;;;;;;26.35;39.22;94879.69;5038434;28;20459;-72
2023/08/09 11:29:03;;;;;;;2.50;2.30;;;;;;;26.43;39.76;94865.91;5073969;28;20442;-71
2023/08/09 11:31:33;;;;;;;2.53;2.37;;;;;;;26.55;40.33;94869.44;5038288;28;20698;-71
2023/08/09 11:34:00;;;;;;;2.70;2.50;;;;;;;26.67;39.69;94866.81;5073758;28;20850;-71
2023/08/09 11:36:29;;;;;;;4.40;2.50;;;;;;;26.32;39.66;94863.97;5073873;28;20562;-73
2023/08/09 11:38:56;;;;;;;3.03;2.50;;;;;;;26.00;40.01;94861.47;5073448;28;20441;-71